sensor_id;sensor_type;location;lat;lon;timestamp;P1;durP1;ratioP1;P2;durP2;ratioP2
11111;SDS011;5609;49.466;8.468;2023-04-08T00:00:39;9.70;;;7.43;;
11111;SDS011;5609;49.466;8.468;2023-04-08T00:03:05;6.97;;;6.27;;
11111;SDS011;5609;49.466;8.468;2023-04-08T00:05:32;8.43;;;7.57;;
11111;SDS011;5609;49.466;8.468;2023-04-08T00:07:59;7.07;;;6.37;;
11111;SDS011;5609;49.466;8.468;2023-04-08T00:10:26;7.50;;;6.63;;
11111;SDS011;5609;49.466;8.468;2023-04-08T00:12:54;8.33;;;6.37;;
11111;SDS011;5609;49.466;8.468;2023-04-08T00:15:21;7.77;;;6.97;;
11111;SDS011;5609;49.466;8.468;2023-04-08T00:17:47;10.13;;;8.27;;
11111;SDS011;5609;49.466;8.468;2023-04-08T00:20:14;9.83;;;8.83;;
11111;SDS011;5609;49.466;8.468;2023-04-08T00:22:41;7.93;;;7.03;;
11111;SDS011;5609;49.466;8.468;2023-04-08T00:25:08;7.40;;;6.60;;
11111;SDS011;5609;49.466;8.468;2023-04-08T00:27:35;7.93;;;6.97;;
11111;SDS011;5609;49.466;8.468;2023-04-08T00:30:03;8.00;;;6.80;;
11111;SDS011;5609;49.466;8.468;2023-04-08T00:32:30;8.67;;;7.77;;
11111;SDS011;5609;49.466;8.468;2023-04-08T00:34:57;8.90;;;8.00;;
11111;SDS011;5609;49.466;8.468;2023-04-08T00:37:24;12.63;;;10.07;;
11111;SDS011;5609;49.466;8.468;2023-04-08T00:39:51;8.23;;;7.27;;
11111;SDS011;5609;49.466;8.468;2023-04-08T00:42:18;8.33;;;7.53;;
11111;SDS011;5609;49.466;8.468;2023-04-08T00:44:45;8.47;;;7.43;;
11111;SDS011;5609;49.466;8.468;2023-04-08T00:47:13;8.50;;;7.20;;
11111;SDS011;5609;49.466;8.468;2023-04-08T00:49:41;8.73;;;7.73;;
11111;SDS011;5609;49.466;8.468;2023-04-08T00:52:08;8.10;;;7.30;;
11111;SDS011;5609;49.466;8.468;2023-04-08T00:54:35;9.87;;;8.27;;
11111;SDS011;5609;49.466;8.468;2023-04-08T00:57:02;10.13;;;8.60;;
11111;SDS011;5609;49.466;8.468;2023-04-08T00:59:29;9.63;;;8.50;;
11111;SDS011;5609;49.466;8.468;2023-04-08T01:01:58;9.77;;;8.30;;
11111;SDS011;5609;49.466;8.468;2023-04-08T01:04:35;21.97;;;13.40;;
11111;SDS011;5609;49.466;8.468;2023-04-08T01:07:10;14.00;;;9.87;;
11111;SDS011;5609;49.466;8.468;2023-04-08T01:09:43;14.87;;;10.70;;
11111;SDS011;5609;49.466;8.468;2023-04-08T01:12:12;9.43;;;8.40;;
11111;SDS011;5609;49.466;8.468;2023-04-08T01:14:45;11.47;;;9.37;;
11111;SDS011;5609;49.466;8.468;2023-04-08T01:17:14;9.23;;;8.27;;
11111;SDS011;5609;49.466;8.468;2023-04-08T01:19:45;10.43;;;8.70;;
11111;SDS011;5609;49.466;8.468;2023-04-08T01:22:16;9.20;;;7.87;;
11111;SDS011;5609;49.466;8.468;2023-04-08T01:25:02;9.50;;;8.40;;
11111;SDS011;5609;49.466;8.468;2023-04-08T01:27:33;9.50;;;8.47;;
11111;SDS011;5609;49.466;8.468;2023-04-08T01:30:00;10.00;;;9.00;;
11111;SDS011;5609;49.466;8.468;2023-04-08T01:32:29;11.40;;;9.43;;
11111;SDS011;5609;49.466;8.468;2023-04-08T01:34:57;8.90;;;8.00;;
11111;SDS011;5609;49.466;8.468;2023-04-08T01:37:25;9.43;;;8.23;;
11111;SDS011;5609;49.466;8.468;2023-04-08T01:39:54;10.27;;;9.13;;
11111;SDS011;5609;49.466;8.468;2023-04-08T01:42:22;11.20;;;8.97;;
11111;SDS011;5609;49.466;8.468;2023-04-08T01:44:51;10.23;;;9.13;;
11111;SDS011;5609;49.466;8.468;2023-04-08T01:47:22;9.43;;;8.53;;
11111;SDS011;5609;49.466;8.468;2023-04-08T01:49:50;10.30;;;8.90;;
11111;SDS011;5609;49.466;8.468;2023-04-08T01:52:19;10.03;;;8.90;;
11111;SDS011;5609;49.466;8.468;2023-04-08T01:54:46;9.93;;;8.50;;
11111;SDS011;5609;49.466;8.468;2023-04-08T01:57:13;9.57;;;8.57;;
11111;SDS011;5609;49.466;8.468;2023-04-08T01:59:48;9.80;;;8.30;;
11111;SDS011;5609;49.466;8.468;2023-04-08T02:02:18;8.93;;;8.03;;
11111;SDS011;5609;49.466;8.468;2023-04-08T02:04:46;9.87;;;8.33;;
11111;SDS011;5609;49.466;8.468;2023-04-08T02:07:13;9.60;;;8.27;;
11111;SDS011;5609;49.466;8.468;2023-04-08T02:09:40;9.60;;;8.60;;
11111;SDS011;5609;49.466;8.468;2023-04-08T02:12:07;9.37;;;8.43;;
11111;SDS011;5609;49.466;8.468;2023-04-08T02:14:33;10.17;;;9.07;;
11111;SDS011;5609;49.466;8.468;2023-04-08T02:17:01;9.37;;;8.37;;
11111;SDS011;5609;49.466;8.468;2023-04-08T02:19:38;9.70;;;8.70;;
11111;SDS011;5609;49.466;8.468;2023-04-08T02:22:10;9.33;;;8.17;;
11111;SDS011;5609;49.466;8.468;2023-04-08T02:24:42;9.43;;;8.43;;
11111;SDS011;5609;49.466;8.468;2023-04-08T02:27:11;9.80;;;8.80;;
11111;SDS011;5609;49.466;8.468;2023-04-08T02:29:38;9.20;;;8.20;;
11111;SDS011;5609;49.466;8.468;2023-04-08T02:32:06;10.53;;;9.27;;
11111;SDS011;5609;49.466;8.468;2023-04-08T02:34:37;9.47;;;8.47;;
11111;SDS011;5609;49.466;8.468;2023-04-08T02:37:05;11.30;;;9.43;;
11111;SDS011;5609;49.466;8.468;2023-04-08T02:39:33;9.97;;;8.90;;
11111;SDS011;5609;49.466;8.468;2023-04-08T02:42:00;10.57;;;9.53;;
11111;SDS011;5609;49.466;8.468;2023-04-08T02:44:27;10.40;;;9.27;;
11111;SDS011;5609;49.466;8.468;2023-04-08T02:46:53;11.37;;;9.60;;
11111;SDS011;5609;49.466;8.468;2023-04-08T02:49:20;11.47;;;10.27;;
11111;SDS011;5609;49.466;8.468;2023-04-08T02:51:48;11.57;;;9.50;;
11111;SDS011;5609;49.466;8.468;2023-04-08T02:54:15;12.17;;;10.27;;
11111;SDS011;5609;49.466;8.468;2023-04-08T02:56:41;13.17;;;10.70;;
11111;SDS011;5609;49.466;8.468;2023-04-08T02:59:08;13.77;;;11.13;;
11111;SDS011;5609;49.466;8.468;2023-04-08T03:01:35;14.07;;;12.03;;
11111;SDS011;5609;49.466;8.468;2023-04-08T03:04:01;16.17;;;12.00;;
11111;SDS011;5609;49.466;8.468;2023-04-08T03:06:28;13.87;;;11.53;;
11111;SDS011;5609;49.466;8.468;2023-04-08T03:08:56;14.47;;;11.93;;
11111;SDS011;5609;49.466;8.468;2023-04-08T03:11:23;14.40;;;12.20;;
11111;SDS011;5609;49.466;8.468;2023-04-08T03:13:50;13.63;;;11.50;;
11111;SDS011;5609;49.466;8.468;2023-04-08T03:16:17;13.00;;;11.60;;
11111;SDS011;5609;49.466;8.468;2023-04-08T03:18:44;14.30;;;12.20;;
11111;SDS011;5609;49.466;8.468;2023-04-08T03:21:10;13.70;;;12.00;;
11111;SDS011;5609;49.466;8.468;2023-04-08T03:23:37;15.13;;;12.53;;
11111;SDS011;5609;49.466;8.468;2023-04-08T03:26:05;14.60;;;12.03;;
11111;SDS011;5609;49.466;8.468;2023-04-08T03:28:32;14.27;;;11.93;;
11111;SDS011;5609;49.466;8.468;2023-04-08T03:30:59;14.17;;;11.90;;
11111;SDS011;5609;49.466;8.468;2023-04-08T03:33:27;14.93;;;12.73;;
11111;SDS011;5609;49.466;8.468;2023-04-08T03:35:54;15.23;;;12.60;;
11111;SDS011;5609;49.466;8.468;2023-04-08T03:38:21;14.93;;;12.60;;
11111;SDS011;5609;49.466;8.468;2023-04-08T03:40:47;15.27;;;12.30;;
11111;SDS011;5609;49.466;8.468;2023-04-08T03:43:16;15.00;;;12.70;;
11111;SDS011;5609;49.466;8.468;2023-04-08T03:45:45;15.57;;;12.83;;
11111;SDS011;5609;49.466;8.468;2023-04-08T03:48:12;17.87;;;14.07;;
11111;SDS011;5609;49.466;8.468;2023-04-08T03:50:38;16.53;;;13.17;;
11111;SDS011;5609;49.466;8.468;2023-04-08T03:53:05;16.00;;;12.80;;
11111;SDS011;5609;49.466;8.468;2023-04-08T03:55:35;16.17;;;12.77;;
11111;SDS011;5609;49.466;8.468;2023-04-08T03:58:01;17.23;;;12.80;;
11111;SDS011;5609;49.466;8.468;2023-04-08T04:00:30;15.80;;;13.00;;
11111;SDS011;5609;49.466;8.468;2023-04-08T04:02:56;16.23;;;12.97;;
11111;SDS011;5609;49.466;8.468;2023-04-08T04:05:23;16.57;;;13.43;;
11111;SDS011;5609;49.466;8.468;2023-04-08T04:07:50;16.33;;;13.33;;
11111;SDS011;5609;49.466;8.468;2023-04-08T04:10:17;17.90;;;13.47;;
11111;SDS011;5609;49.466;8.468;2023-04-08T04:12:43;17.57;;;13.67;;
11111;SDS011;5609;49.466;8.468;2023-04-08T04:15:11;16.47;;;13.10;;
11111;SDS011;5609;49.466;8.468;2023-04-08T04:17:39;16.57;;;13.60;;
11111;SDS011;5609;49.466;8.468;2023-04-08T04:20:07;16.17;;;13.47;;
11111;SDS011;5609;49.466;8.468;2023-04-08T04:22:34;14.97;;;13.20;;
11111;SDS011;5609;49.466;8.468;2023-04-08T04:25:01;17.73;;;13.60;;
11111;SDS011;5609;49.466;8.468;2023-04-08T04:27:27;17.30;;;13.17;;
11111;SDS011;5609;49.466;8.468;2023-04-08T04:29:54;16.97;;;13.30;;
11111;SDS011;5609;49.466;8.468;2023-04-08T04:32:21;17.43;;;13.33;;
11111;SDS011;5609;49.466;8.468;2023-04-08T04:34:49;17.43;;;13.33;;
11111;SDS011;5609;49.466;8.468;2023-04-08T04:37:16;18.80;;;13.77;;
11111;SDS011;5609;49.466;8.468;2023-04-08T04:39:42;17.33;;;13.53;;
11111;SDS011;5609;49.466;8.468;2023-04-08T04:42:09;17.33;;;13.77;;
11111;SDS011;5609;49.466;8.468;2023-04-08T04:44:36;19.93;;;14.53;;
11111;SDS011;5609;49.466;8.468;2023-04-08T04:47:03;18.23;;;14.17;;
11111;SDS011;5609;49.466;8.468;2023-04-08T04:49:30;19.27;;;14.30;;
11111;SDS011;5609;49.466;8.468;2023-04-08T04:51:58;18.87;;;13.67;;
11111;SDS011;5609;49.466;8.468;2023-04-08T04:54:25;19.43;;;13.60;;
11111;SDS011;5609;49.466;8.468;2023-04-08T04:56:51;20.87;;;14.53;;
11111;SDS011;5609;49.466;8.468;2023-04-08T04:59:18;20.30;;;13.80;;
11111;SDS011;5609;49.466;8.468;2023-04-08T05:01:45;18.47;;;13.87;;
11111;SDS011;5609;49.466;8.468;2023-04-08T05:04:11;21.13;;;13.93;;
11111;SDS011;5609;49.466;8.468;2023-04-08T05:06:38;15.43;;;12.77;;
11111;SDS011;5609;49.466;8.468;2023-04-08T05:09:06;16.63;;;13.07;;
11111;SDS011;5609;49.466;8.468;2023-04-08T05:11:33;17.20;;;12.90;;
11111;SDS011;5609;49.466;8.468;2023-04-08T05:14:00;15.60;;;11.90;;
11111;SDS011;5609;49.466;8.468;2023-04-08T05:16:26;15.07;;;11.80;;
11111;SDS011;5609;49.466;8.468;2023-04-08T05:18:53;16.20;;;12.00;;
11111;SDS011;5609;49.466;8.468;2023-04-08T05:21:20;12.73;;;11.43;;
11111;SDS011;5609;49.466;8.468;2023-04-08T05:23:47;13.10;;;11.30;;
11111;SDS011;5609;49.466;8.468;2023-04-08T05:26:16;13.80;;;11.20;;
11111;SDS011;5609;49.466;8.468;2023-04-08T05:28:43;13.53;;;11.27;;
11111;SDS011;5609;49.466;8.468;2023-04-08T05:31:09;13.97;;;11.47;;
11111;SDS011;5609;49.466;8.468;2023-04-08T05:33:36;13.70;;;11.87;;
11111;SDS011;5609;49.466;8.468;2023-04-08T05:36:03;13.03;;;11.00;;
11111;SDS011;5609;49.466;8.468;2023-04-08T05:38:30;12.33;;;11.00;;
11111;SDS011;5609;49.466;8.468;2023-04-08T05:40:57;11.90;;;10.03;;
11111;SDS011;5609;49.466;8.468;2023-04-08T05:43:25;11.70;;;9.83;;
11111;SDS011;5609;49.466;8.468;2023-04-08T05:45:52;10.77;;;9.40;;
11111;SDS011;5609;49.466;8.468;2023-04-08T05:48:18;9.80;;;8.80;;
11111;SDS011;5609;49.466;8.468;2023-04-08T05:50:45;10.67;;;9.17;;
11111;SDS011;5609;49.466;8.468;2023-04-08T05:53:12;9.33;;;8.43;;
11111;SDS011;5609;49.466;8.468;2023-04-08T05:55:39;9.33;;;8.43;;
11111;SDS011;5609;49.466;8.468;2023-04-08T05:58:06;8.83;;;8.03;;
11111;SDS011;5609;49.466;8.468;2023-04-08T06:00:34;9.40;;;8.50;;
11111;SDS011;5609;49.466;8.468;2023-04-08T06:03:01;8.70;;;7.80;;
11111;SDS011;5609;49.466;8.468;2023-04-08T06:05:27;9.37;;;8.47;;
11111;SDS011;5609;49.466;8.468;2023-04-08T06:07:54;9.07;;;8.17;;
11111;SDS011;5609;49.466;8.468;2023-04-08T06:10:21;8.80;;;8.00;;
11111;SDS011;5609;49.466;8.468;2023-04-08T06:12:48;8.70;;;7.90;;
11111;SDS011;5609;49.466;8.468;2023-04-08T06:15:15;8.67;;;7.77;;
11111;SDS011;5609;49.466;8.468;2023-04-08T06:17:43;8.30;;;7.50;;
11111;SDS011;5609;49.466;8.468;2023-04-08T06:20:10;8.20;;;7.50;;
11111;SDS011;5609;49.466;8.468;2023-04-08T06:22:36;8.47;;;7.73;;
11111;SDS011;5609;49.466;8.468;2023-04-08T06:25:03;8.63;;;7.83;;
11111;SDS011;5609;49.466;8.468;2023-04-08T06:27:31;8.53;;;7.73;;
11111;SDS011;5609;49.466;8.468;2023-04-08T06:29:57;8.30;;;7.50;;
11111;SDS011;5609;49.466;8.468;2023-04-08T06:32:24;8.33;;;7.63;;
11111;SDS011;5609;49.466;8.468;2023-04-08T06:34:52;8.30;;;7.53;;
11111;SDS011;5609;49.466;8.468;2023-04-08T06:37:19;8.53;;;7.73;;
11111;SDS011;5609;49.466;8.468;2023-04-08T06:39:46;8.47;;;7.67;;
11111;SDS011;5609;49.466;8.468;2023-04-08T06:42:12;8.03;;;7.33;;
11111;SDS011;5609;49.466;8.468;2023-04-08T06:44:39;8.07;;;7.27;;
11111;SDS011;5609;49.466;8.468;2023-04-08T06:47:06;8.53;;;7.83;;
11111;SDS011;5609;49.466;8.468;2023-04-08T06:49:33;8.60;;;7.80;;
11111;SDS011;5609;49.466;8.468;2023-04-08T06:52:02;8.63;;;7.87;;
11111;SDS011;5609;49.466;8.468;2023-04-08T06:54:30;8.20;;;7.40;;
11111;SDS011;5609;49.466;8.468;2023-04-08T06:56:57;8.87;;;7.97;;
11111;SDS011;5609;49.466;8.468;2023-04-08T06:59:24;8.87;;;8.07;;
11111;SDS011;5609;49.466;8.468;2023-04-08T07:01:50;8.83;;;7.73;;
11111;SDS011;5609;49.466;8.468;2023-04-08T07:04:17;8.87;;;7.97;;
11111;SDS011;5609;49.466;8.468;2023-04-08T07:06:44;9.07;;;8.17;;
11111;SDS011;5609;49.466;8.468;2023-04-08T07:09:12;8.70;;;7.80;;
11111;SDS011;5609;49.466;8.468;2023-04-08T07:11:38;8.30;;;7.50;;
11111;SDS011;5609;49.466;8.468;2023-04-08T07:14:06;9.00;;;8.10;;
11111;SDS011;5609;49.466;8.468;2023-04-08T07:16:32;7.80;;;7.10;;
11111;SDS011;5609;49.466;8.468;2023-04-08T07:18:59;8.17;;;7.47;;
11111;SDS011;5609;49.466;8.468;2023-04-08T07:21:26;8.80;;;8.00;;
11111;SDS011;5609;49.466;8.468;2023-04-08T07:23:55;7.87;;;7.17;;
11111;SDS011;5609;49.466;8.468;2023-04-08T07:26:23;8.13;;;7.33;;
11111;SDS011;5609;49.466;8.468;2023-04-08T07:28:50;7.70;;;6.90;;
11111;SDS011;5609;49.466;8.468;2023-04-08T07:31:17;8.00;;;7.30;;
11111;SDS011;5609;49.466;8.468;2023-04-08T07:33:44;8.50;;;7.67;;
11111;SDS011;5609;49.466;8.468;2023-04-08T07:36:11;8.37;;;7.67;;
11111;SDS011;5609;49.466;8.468;2023-04-08T07:38:39;8.03;;;7.23;;
11111;SDS011;5609;49.466;8.468;2023-04-08T07:41:06;8.03;;;7.30;;
11111;SDS011;5609;49.466;8.468;2023-04-08T07:43:34;7.73;;;6.93;;
11111;SDS011;5609;49.466;8.468;2023-04-08T07:46:01;7.97;;;7.20;;
11111;SDS011;5609;49.466;8.468;2023-04-08T07:48:28;9.03;;;7.77;;
11111;SDS011;5609;49.466;8.468;2023-04-08T07:50:55;8.27;;;7.47;;
11111;SDS011;5609;49.466;8.468;2023-04-08T07:53:22;8.40;;;7.60;;
11111;SDS011;5609;49.466;8.468;2023-04-08T07:55:50;8.47;;;7.63;;
11111;SDS011;5609;49.466;8.468;2023-04-08T07:58:17;8.40;;;7.60;;
11111;SDS011;5609;49.466;8.468;2023-04-08T08:00:45;8.33;;;7.53;;
11111;SDS011;5609;49.466;8.468;2023-04-08T08:03:12;8.40;;;7.60;;
11111;SDS011;5609;49.466;8.468;2023-04-08T08:05:39;8.43;;;7.63;;
11111;SDS011;5609;49.466;8.468;2023-04-08T08:08:05;7.77;;;7.07;;
11111;SDS011;5609;49.466;8.468;2023-04-08T08:10:32;7.47;;;6.67;;
11111;SDS011;5609;49.466;8.468;2023-04-08T08:12:59;8.20;;;7.50;;
11111;SDS011;5609;49.466;8.468;2023-04-08T08:15:26;8.40;;;7.60;;
11111;SDS011;5609;49.466;8.468;2023-04-08T08:17:54;8.50;;;7.70;;
11111;SDS011;5609;49.466;8.468;2023-04-08T08:20:21;8.30;;;7.50;;
11111;SDS011;5609;49.466;8.468;2023-04-08T08:22:47;8.67;;;7.83;;
11111;SDS011;5609;49.466;8.468;2023-04-08T08:25:14;8.87;;;8.07;;
11111;SDS011;5609;49.466;8.468;2023-04-08T08:27:41;8.57;;;7.87;;
11111;SDS011;5609;49.466;8.468;2023-04-08T08:30:09;9.03;;;7.83;;
11111;SDS011;5609;49.466;8.468;2023-04-08T08:32:36;8.93;;;8.00;;
11111;SDS011;5609;49.466;8.468;2023-04-08T08:35:05;9.07;;;8.17;;
11111;SDS011;5609;49.466;8.468;2023-04-08T08:37:32;8.83;;;8.00;;
11111;SDS011;5609;49.466;8.468;2023-04-08T08:39:59;9.87;;;8.87;;
11111;SDS011;5609;49.466;8.468;2023-04-08T08:42:25;9.23;;;8.33;;
11111;SDS011;5609;49.466;8.468;2023-04-08T08:44:52;8.80;;;8.00;;
11111;SDS011;5609;49.466;8.468;2023-04-08T08:47:20;9.70;;;8.70;;
11111;SDS011;5609;49.466;8.468;2023-04-08T08:49:46;9.40;;;8.40;;
11111;SDS011;5609;49.466;8.468;2023-04-08T08:52:16;9.00;;;8.20;;
11111;SDS011;5609;49.466;8.468;2023-04-08T08:54:42;9.40;;;8.50;;
11111;SDS011;5609;49.466;8.468;2023-04-08T08:57:15;9.07;;;8.17;;
11111;SDS011;5609;49.466;8.468;2023-04-08T08:59:44;8.67;;;7.80;;
11111;SDS011;5609;49.466;8.468;2023-04-08T09:02:22;9.07;;;8.17;;
11111;SDS011;5609;49.466;8.468;2023-04-08T09:04:54;8.27;;;7.47;;
11111;SDS011;5609;49.466;8.468;2023-04-08T09:07:24;9.40;;;8.40;;
11111;SDS011;5609;49.466;8.468;2023-04-08T09:09:52;9.00;;;8.10;;
11111;SDS011;5609;49.466;8.468;2023-04-08T09:12:20;9.50;;;8.60;;
11111;SDS011;5609;49.466;8.468;2023-04-08T09:14:46;9.27;;;8.47;;
11111;SDS011;5609;49.466;8.468;2023-04-08T09:17:13;9.47;;;8.50;;
11111;SDS011;5609;49.466;8.468;2023-04-08T09:19:48;10.27;;;9.27;;
11111;SDS011;5609;49.466;8.468;2023-04-08T09:22:35;10.17;;;9.17;;
11111;SDS011;5609;49.466;8.468;2023-04-08T09:25:24;10.23;;;9.20;;
11111;SDS011;5609;49.466;8.468;2023-04-08T09:27:52;10.30;;;9.20;;
11111;SDS011;5609;49.466;8.468;2023-04-08T09:30:20;10.50;;;9.20;;
11111;SDS011;5609;49.466;8.468;2023-04-08T09:32:48;9.70;;;8.70;;
11111;SDS011;5609;49.466;8.468;2023-04-08T09:35:16;9.63;;;8.63;;
11111;SDS011;5609;49.466;8.468;2023-04-08T09:37:45;9.37;;;8.57;;
11111;SDS011;5609;49.466;8.468;2023-04-08T09:40:12;10.40;;;9.30;;
11111;SDS011;5609;49.466;8.468;2023-04-08T09:42:42;9.70;;;8.80;;
11111;SDS011;5609;49.466;8.468;2023-04-08T09:45:12;9.30;;;8.30;;
11111;SDS011;5609;49.466;8.468;2023-04-08T09:47:41;9.77;;;8.77;;
11111;SDS011;5609;49.466;8.468;2023-04-08T09:50:16;9.73;;;8.83;;
11111;SDS011;5609;49.466;8.468;2023-04-08T09:52:52;10.17;;;9.20;;
11111;SDS011;5609;49.466;8.468;2023-04-08T09:55:22;11.77;;;9.20;;
11111;SDS011;5609;49.466;8.468;2023-04-08T09:57:53;9.53;;;8.73;;
11111;SDS011;5609;49.466;8.468;2023-04-08T10:00:27;9.73;;;8.73;;
11111;SDS011;5609;49.466;8.468;2023-04-08T10:02:58;10.60;;;9.60;;
11111;SDS011;5609;49.466;8.468;2023-04-08T10:05:31;9.57;;;8.67;;
11111;SDS011;5609;49.466;8.468;2023-04-08T10:08:03;10.43;;;9.40;;
11111;SDS011;5609;49.466;8.468;2023-04-08T10:10:30;15.57;;;13.97;;
11111;SDS011;5609;49.466;8.468;2023-04-08T10:12:58;16.13;;;14.53;;
11111;SDS011;5609;49.466;8.468;2023-04-08T10:15:26;13.47;;;12.10;;
11111;SDS011;5609;49.466;8.468;2023-04-08T10:17:54;9.60;;;8.70;;
11111;SDS011;5609;49.466;8.468;2023-04-08T10:20:42;14.33;;;12.40;;
11111;SDS011;5609;49.466;8.468;2023-04-08T10:23:12;27.67;;;21.70;;
11111;SDS011;5609;49.466;8.468;2023-04-08T10:25:39;25.20;;;18.77;;
11111;SDS011;5609;49.466;8.468;2023-04-08T10:28:22;11.40;;;10.20;;
11111;SDS011;5609;49.466;8.468;2023-04-08T10:30:50;20.50;;;16.90;;
11111;SDS011;5609;49.466;8.468;2023-04-08T10:33:19;10.40;;;9.40;;
11111;SDS011;5609;49.466;8.468;2023-04-08T10:35:48;9.93;;;8.57;;
11111;SDS011;5609;49.466;8.468;2023-04-08T10:38:19;9.90;;;8.90;;
11111;SDS011;5609;49.466;8.468;2023-04-08T10:40:47;10.67;;;8.70;;
11111;SDS011;5609;49.466;8.468;2023-04-08T10:43:15;9.43;;;8.43;;
11111;SDS011;5609;49.466;8.468;2023-04-08T10:45:42;9.40;;;8.50;;
11111;SDS011;5609;49.466;8.468;2023-04-08T10:48:10;9.07;;;8.20;;
11111;SDS011;5609;49.466;8.468;2023-04-08T10:50:41;10.47;;;9.13;;
11111;SDS011;5609;49.466;8.468;2023-04-08T10:53:09;10.30;;;9.40;;
11111;SDS011;5609;49.466;8.468;2023-04-08T10:55:37;10.70;;;9.60;;
11111;SDS011;5609;49.466;8.468;2023-04-08T10:58:04;28.40;;;25.50;;
11111;SDS011;5609;49.466;8.468;2023-04-08T11:00:33;16.17;;;14.57;;
11111;SDS011;5609;49.466;8.468;2023-04-08T11:03:00;10.43;;;9.30;;
11111;SDS011;5609;49.466;8.468;2023-04-08T11:05:28;10.13;;;9.10;;
11111;SDS011;5609;49.466;8.468;2023-04-08T11:07:55;12.00;;;10.90;;
11111;SDS011;5609;49.466;8.468;2023-04-08T11:10:22;10.17;;;9.23;;
11111;SDS011;5609;49.466;8.468;2023-04-08T11:12:51;9.67;;;8.77;;
11111;SDS011;5609;49.466;8.468;2023-04-08T11:15:19;9.77;;;8.87;;
11111;SDS011;5609;49.466;8.468;2023-04-08T11:17:46;10.43;;;9.50;;
11111;SDS011;5609;49.466;8.468;2023-04-08T11:20:13;10.07;;;9.17;;
11111;SDS011;5609;49.466;8.468;2023-04-08T11:22:40;10.23;;;9.27;;
11111;SDS011;5609;49.466;8.468;2023-04-08T11:25:08;10.13;;;9.13;;
11111;SDS011;5609;49.466;8.468;2023-04-08T11:27:35;10.23;;;9.23;;
11111;SDS011;5609;49.466;8.468;2023-04-08T11:30:05;9.67;;;8.77;;
11111;SDS011;5609;49.466;8.468;2023-04-08T11:32:34;9.10;;;8.20;;
11111;SDS011;5609;49.466;8.468;2023-04-08T11:35:03;9.03;;;8.23;;
11111;SDS011;5609;49.466;8.468;2023-04-08T11:37:37;8.10;;;7.30;;
11111;SDS011;5609;49.466;8.468;2023-04-08T11:40:06;7.80;;;6.97;;
11111;SDS011;5609;49.466;8.468;2023-04-08T11:42:34;8.30;;;7.50;;
11111;SDS011;5609;49.466;8.468;2023-04-08T11:45:00;7.50;;;6.80;;
11111;SDS011;5609;49.466;8.468;2023-04-08T11:47:36;6.47;;;5.87;;
11111;SDS011;5609;49.466;8.468;2023-04-08T11:50:03;6.63;;;5.83;;
11111;SDS011;5609;49.466;8.468;2023-04-08T11:52:40;7.57;;;6.87;;
11111;SDS011;5609;49.466;8.468;2023-04-08T11:55:08;7.07;;;6.37;;
11111;SDS011;5609;49.466;8.468;2023-04-08T11:57:35;6.90;;;6.13;;
11111;SDS011;5609;49.466;8.468;2023-04-08T12:00:03;7.63;;;6.93;;
11111;SDS011;5609;49.466;8.468;2023-04-08T12:02:30;7.77;;;7.07;;
11111;SDS011;5609;49.466;8.468;2023-04-08T12:04:58;8.20;;;7.50;;
11111;SDS011;5609;49.466;8.468;2023-04-08T12:07:26;8.40;;;7.60;;
11111;SDS011;5609;49.466;8.468;2023-04-08T12:09:53;7.90;;;7.13;;
11111;SDS011;5609;49.466;8.468;2023-04-08T12:12:20;9.23;;;8.00;;
11111;SDS011;5609;49.466;8.468;2023-04-08T12:14:46;8.10;;;7.30;;
11111;SDS011;5609;49.466;8.468;2023-04-08T12:17:13;8.10;;;7.40;;
11111;SDS011;5609;49.466;8.468;2023-04-08T12:19:40;8.27;;;7.47;;
11111;SDS011;5609;49.466;8.468;2023-04-08T12:22:08;8.77;;;7.97;;
11111;SDS011;5609;49.466;8.468;2023-04-08T12:24:35;9.60;;;8.60;;
11111;SDS011;5609;49.466;8.468;2023-04-08T12:27:02;8.43;;;7.63;;
11111;SDS011;5609;49.466;8.468;2023-04-08T12:29:29;8.23;;;7.53;;
11111;SDS011;5609;49.466;8.468;2023-04-08T12:31:55;8.50;;;7.80;;
11111;SDS011;5609;49.466;8.468;2023-04-08T12:34:22;8.93;;;8.03;;
11111;SDS011;5609;49.466;8.468;2023-04-08T12:36:49;9.07;;;8.27;;
11111;SDS011;5609;49.466;8.468;2023-04-08T12:39:17;8.30;;;7.50;;
11111;SDS011;5609;49.466;8.468;2023-04-08T12:41:45;8.60;;;7.80;;
11111;SDS011;5609;49.466;8.468;2023-04-08T12:44:11;8.60;;;7.80;;
11111;SDS011;5609;49.466;8.468;2023-04-08T12:46:38;8.33;;;7.53;;
11111;SDS011;5609;49.466;8.468;2023-04-08T12:49:05;8.23;;;7.43;;
11111;SDS011;5609;49.466;8.468;2023-04-08T12:51:32;7.73;;;6.93;;
11111;SDS011;5609;49.466;8.468;2023-04-08T12:53:59;8.60;;;7.80;;
11111;SDS011;5609;49.466;8.468;2023-04-08T12:56:28;8.23;;;7.43;;
11111;SDS011;5609;49.466;8.468;2023-04-08T12:58:56;7.77;;;7.07;;
11111;SDS011;5609;49.466;8.468;2023-04-08T13:01:22;8.40;;;7.60;;
11111;SDS011;5609;49.466;8.468;2023-04-08T13:03:49;8.80;;;8.00;;
11111;SDS011;5609;49.466;8.468;2023-04-08T13:06:16;8.70;;;7.80;;
11111;SDS011;5609;49.466;8.468;2023-04-08T13:08:43;8.27;;;7.57;;
11111;SDS011;5609;49.466;8.468;2023-04-08T13:11:09;7.90;;;7.10;;
11111;SDS011;5609;49.466;8.468;2023-04-08T13:13:37;8.53;;;7.73;;
11111;SDS011;5609;49.466;8.468;2023-04-08T13:16:04;8.93;;;8.10;;
11111;SDS011;5609;49.466;8.468;2023-04-08T13:18:31;9.87;;;8.60;;
11111;SDS011;5609;49.466;8.468;2023-04-08T13:20:58;9.17;;;8.37;;
11111;SDS011;5609;49.466;8.468;2023-04-08T13:23:25;9.30;;;8.50;;
11111;SDS011;5609;49.466;8.468;2023-04-08T13:25:51;9.27;;;8.43;;
11111;SDS011;5609;49.466;8.468;2023-04-08T13:28:18;8.77;;;7.97;;
11111;SDS011;5609;49.466;8.468;2023-04-08T13:30:47;9.03;;;8.17;;
11111;SDS011;5609;49.466;8.468;2023-04-08T13:33:13;8.60;;;7.80;;
11111;SDS011;5609;49.466;8.468;2023-04-08T13:35:41;8.73;;;7.93;;
11111;SDS011;5609;49.466;8.468;2023-04-08T13:38:08;8.77;;;8.07;;
11111;SDS011;5609;49.466;8.468;2023-04-08T13:40:34;8.60;;;7.80;;
11111;SDS011;5609;49.466;8.468;2023-04-08T13:43:01;8.20;;;7.50;;
11111;SDS011;5609;49.466;8.468;2023-04-08T13:45:28;8.50;;;7.63;;
11111;SDS011;5609;49.466;8.468;2023-04-08T13:47:56;7.47;;;6.77;;
11111;SDS011;5609;49.466;8.468;2023-04-08T13:50:23;7.07;;;6.47;;
11111;SDS011;5609;49.466;8.468;2023-04-08T13:52:50;7.70;;;7.03;;
11111;SDS011;5609;49.466;8.468;2023-04-08T13:55:17;7.27;;;6.53;;
11111;SDS011;5609;49.466;8.468;2023-04-08T13:57:44;7.87;;;7.10;;
11111;SDS011;5609;49.466;8.468;2023-04-08T14:00:12;7.20;;;6.30;;
11111;SDS011;5609;49.466;8.468;2023-04-08T14:02:39;7.07;;;6.40;;
11111;SDS011;5609;49.466;8.468;2023-04-08T14:05:07;6.60;;;6.00;;
11111;SDS011;5609;49.466;8.468;2023-04-08T14:07:34;6.70;;;6.00;;
11111;SDS011;5609;49.466;8.468;2023-04-08T14:10:01;5.80;;;5.17;;
11111;SDS011;5609;49.466;8.468;2023-04-08T14:12:27;6.47;;;5.87;;
11111;SDS011;5609;49.466;8.468;2023-04-08T14:14:54;5.80;;;5.20;;
11111;SDS011;5609;49.466;8.468;2023-04-08T14:17:21;6.53;;;5.93;;
11111;SDS011;5609;49.466;8.468;2023-04-08T14:19:48;5.77;;;5.27;;
11111;SDS011;5609;49.466;8.468;2023-04-08T14:22:16;5.67;;;5.17;;
11111;SDS011;5609;49.466;8.468;2023-04-08T14:24:43;6.73;;;6.13;;
11111;SDS011;5609;49.466;8.468;2023-04-08T14:27:10;7.80;;;7.10;;
11111;SDS011;5609;49.466;8.468;2023-04-08T14:29:36;7.10;;;6.50;;
11111;SDS011;5609;49.466;8.468;2023-04-08T14:32:03;7.67;;;6.60;;
11111;SDS011;5609;49.466;8.468;2023-04-08T14:34:30;6.70;;;6.10;;
11111;SDS011;5609;49.466;8.468;2023-04-08T14:36:57;7.00;;;6.40;;
11111;SDS011;5609;49.466;8.468;2023-04-08T14:39:25;7.03;;;6.43;;
11111;SDS011;5609;49.466;8.468;2023-04-08T14:41:52;7.50;;;6.80;;
11111;SDS011;5609;49.466;8.468;2023-04-08T14:44:18;7.50;;;6.80;;
11111;SDS011;5609;49.466;8.468;2023-04-08T14:46:45;7.53;;;6.83;;
11111;SDS011;5609;49.466;8.468;2023-04-08T14:49:12;7.80;;;7.00;;
11111;SDS011;5609;49.466;8.468;2023-04-08T14:51:39;7.67;;;6.97;;
11111;SDS011;5609;49.466;8.468;2023-04-08T14:54:05;7.33;;;6.63;;
11111;SDS011;5609;49.466;8.468;2023-04-08T14:56:33;7.43;;;6.37;;